sensor_id;sensor_type;location;lat;lon;timestamp;temperature;humidity
1417;DHT22;703;51.162;13.574;2023-05-10T00:02:02;12.60;99.90
1417;DHT22;703;51.162;13.574;2023-05-10T00:04:28;12.50;99.90
1417;DHT22;703;51.162;13.574;2023-05-10T00:06:53;12.40;99.90
1417;DHT22;703;51.162;13.574;2023-05-10T00:09:19;12.40;99.90
1417;DHT22;703;51.162;13.574;2023-05-10T00:11:44;12.30;99.90
1417;DHT22;703;51.162;13.574;2023-05-10T00:14:10;12.50;99.90
1417;DHT22;703;51.162;13.574;2023-05-10T00:16:36;12.40;99.90
1417;DHT22;703;51.162;13.574;2023-05-10T00:19:02;12.30;99.90
1417;DHT22;703;51.162;13.574;2023-05-10T00:21:27;12.30;99.90
1417;DHT22;703;51.162;13.574;2023-05-10T00:23:53;12.30;99.90
1417;DHT22;703;51.162;13.574;2023-05-10T00:26:19;12.40;99.90
1417;DHT22;703;51.162;13.574;2023-05-10T00:28:45;12.40;99.90
1417;DHT22;703;51.162;13.574;2023-05-10T00:31:10;12.40;99.90
1417;DHT22;703;51.162;13.574;2023-05-10T00:33:36;12.40;99.90
1417;DHT22;703;51.162;13.574;2023-05-10T00:36:01;12.30;99.90
1417;DHT22;703;51.162;13.574;2023-05-10T00:38:27;12.30;99.90
1417;DHT22;703;51.162;13.574;2023-05-10T00:40:52;12.30;99.90
1417;DHT22;703;51.162;13.574;2023-05-10T00:43:18;12.30;99.90
1417;DHT22;703;51.162;13.574;2023-05-10T00:45:43;12.20;99.90
1417;DHT22;703;51.162;13.574;2023-05-10T00:48:09;12.20;99.90
1417;DHT22;703;51.162;13.574;2023-05-10T00:50:35;12.10;99.90
1417;DHT22;703;51.162;13.574;2023-05-10T00:53:01;12.10;99.90
1417;DHT22;703;51.162;13.574;2023-05-10T00:55:27;12.10;99.90
1417;DHT22;703;51.162;13.574;2023-05-10T00:57:53;12.10;99.90
1417;DHT22;703;51.162;13.574;2023-05-10T01:00:19;12.10;99.90
1417;DHT22;703;51.162;13.574;2023-05-10T01:02:45;12.00;99.90
1417;DHT22;703;51.162;13.574;2023-05-10T01:05:11;11.90;99.90
1417;DHT22;703;51.162;13.574;2023-05-10T01:07:37;11.90;99.90
1417;DHT22;703;51.162;13.574;2023-05-10T01:10:02;11.80;99.90
1417;DHT22;703;51.162;13.574;2023-05-10T01:12:28;11.90;99.90
1417;DHT22;703;51.162;13.574;2023-05-10T01:14:54;10.30;99.90
1417;DHT22;703;51.162;13.574;2023-05-10T01:17:20;11.90;99.90
1417;DHT22;703;51.162;13.574;2023-05-10T01:19:46;11.70;99.90
1417;DHT22;703;51.162;13.574;2023-05-10T01:35:22;11.70;99.90
1417;DHT22;703;51.162;13.574;2023-05-10T01:40:35;11.70;99.90
1417;DHT22;703;51.162;13.574;2023-05-10T01:43:03;11.60;99.90
1417;DHT22;703;51.162;13.574;2023-05-10T01:47:58;11.40;99.90
1417;DHT22;703;51.162;13.574;2023-05-10T01:50:28;11.50;99.90
1417;DHT22;703;51.162;13.574;2023-05-10T01:52:55;11.40;99.90
1417;DHT22;703;51.162;13.574;2023-05-10T01:55:22;11.50;99.90
1417;DHT22;703;51.162;13.574;2023-05-10T01:57:51;11.50;99.90
1417;DHT22;703;51.162;13.574;2023-05-10T02:00:18;11.40;99.90
1417;DHT22;703;51.162;13.574;2023-05-10T02:02:45;11.40;99.90
1417;DHT22;703;51.162;13.574;2023-05-10T02:05:12;11.40;99.90
1417;DHT22;703;51.162;13.574;2023-05-10T02:07:38;11.30;99.90
1417;DHT22;703;51.162;13.574;2023-05-10T02:10:07;11.30;99.90
1417;DHT22;703;51.162;13.574;2023-05-10T02:12:37;11.20;99.90
1417;DHT22;703;51.162;13.574;2023-05-10T02:15:05;11.20;99.90
1417;DHT22;703;51.162;13.574;2023-05-10T02:17:32;11.20;99.90
1417;DHT22;703;51.162;13.574;2023-05-10T02:19:58;11.20;99.90
1417;DHT22;703;51.162;13.574;2023-05-10T02:22:25;11.10;99.90
1417;DHT22;703;51.162;13.574;2023-05-10T02:24:51;11.10;99.90
1417;DHT22;703;51.162;13.574;2023-05-10T02:27:17;11.00;99.90
1417;DHT22;703;51.162;13.574;2023-05-10T02:29:45;11.00;99.90
1417;DHT22;703;51.162;13.574;2023-05-10T02:32:11;10.90;99.90
1417;DHT22;703;51.162;13.574;2023-05-10T02:34:37;10.90;99.90
1417;DHT22;703;51.162;13.574;2023-05-10T02:37:03;10.80;99.90
1417;DHT22;703;51.162;13.574;2023-05-10T02:39:31;10.70;99.90
1417;DHT22;703;51.162;13.574;2023-05-10T02:41:57;10.60;99.90
1417;DHT22;703;51.162;13.574;2023-05-10T02:44:23;10.70;99.90
1417;DHT22;703;51.162;13.574;2023-05-10T02:46:50;10.70;99.90
1417;DHT22;703;51.162;13.574;2023-05-10T02:49:15;10.70;99.90
1417;DHT22;703;51.162;13.574;2023-05-10T02:51:42;10.70;99.90
1417;DHT22;703;51.162;13.574;2023-05-10T02:54:16;10.80;99.90
1417;DHT22;703;51.162;13.574;2023-05-10T02:56:46;10.70;99.90
1417;DHT22;703;51.162;13.574;2023-05-10T02:59:12;10.70;99.90
1417;DHT22;703;51.162;13.574;2023-05-10T03:01:38;10.70;99.90
1417;DHT22;703;51.162;13.574;2023-05-10T03:04:03;10.70;99.90
1417;DHT22;703;51.162;13.574;2023-05-10T03:06:29;10.60;99.90
1417;DHT22;703;51.162;13.574;2023-05-10T03:08:54;10.60;99.90
1417;DHT22;703;51.162;13.574;2023-05-10T03:16:57;10.40;99.90
1417;DHT22;703;51.162;13.574;2023-05-10T03:19:32;10.30;99.90
1417;DHT22;703;51.162;13.574;2023-05-10T03:22:04;10.30;99.90
1417;DHT22;703;51.162;13.574;2023-05-10T03:24:32;10.30;99.90
1417;DHT22;703;51.162;13.574;2023-05-10T03:26:59;10.40;99.90
1417;DHT22;703;51.162;13.574;2023-05-10T03:29:27;10.50;99.90
1417;DHT22;703;51.162;13.574;2023-05-10T03:31:53;10.60;99.90
1417;DHT22;703;51.162;13.574;2023-05-10T03:34:23;10.50;99.90
1417;DHT22;703;51.162;13.574;2023-05-10T03:36:49;10.50;99.90
1417;DHT22;703;51.162;13.574;2023-05-10T03:39:14;10.40;99.90
1417;DHT22;703;51.162;13.574;2023-05-10T03:41:40;10.40;99.90
1417;DHT22;703;51.162;13.574;2023-05-10T03:44:05;10.50;99.90
1417;DHT22;703;51.162;13.574;2023-05-10T03:46:31;10.50;99.90
1417;DHT22;703;51.162;13.574;2023-05-10T03:48:59;10.40;99.90
1417;DHT22;703;51.162;13.574;2023-05-10T03:51:25;10.40;99.90
1417;DHT22;703;51.162;13.574;2023-05-10T03:53:53;10.30;99.90
1417;DHT22;703;51.162;13.574;2023-05-10T03:56:19;10.20;99.90
1417;DHT22;703;51.162;13.574;2023-05-10T03:58:46;10.30;99.90
1417;DHT22;703;51.162;13.574;2023-05-10T04:01:11;10.30;99.90
1417;DHT22;703;51.162;13.574;2023-05-10T04:03:37;10.30;99.90
1417;DHT22;703;51.162;13.574;2023-05-10T04:06:03;10.40;99.90
1417;DHT22;703;51.162;13.574;2023-05-10T04:08:29;10.40;99.90
1417;DHT22;703;51.162;13.574;2023-05-10T04:11:04;9.50;99.90
1417;DHT22;703;51.162;13.574;2023-05-10T04:13:29;10.40;99.90
1417;DHT22;703;51.162;13.574;2023-05-10T04:15:54;10.50;99.90
1417;DHT22;703;51.162;13.574;2023-05-10T04:18:20;10.60;99.90
1417;DHT22;703;51.162;13.574;2023-05-10T04:20:46;10.70;99.90
1417;DHT22;703;51.162;13.574;2023-05-10T04:23:11;10.80;99.90
1417;DHT22;703;51.162;13.574;2023-05-10T04:25:37;10.90;99.90
1417;DHT22;703;51.162;13.574;2023-05-10T04:28:02;11.10;99.90
1417;DHT22;703;51.162;13.574;2023-05-10T04:30:28;11.10;99.90
1417;DHT22;703;51.162;13.574;2023-05-10T04:32:54;11.20;99.90
1417;DHT22;703;51.162;13.574;2023-05-10T04:35:19;11.30;99.90
1417;DHT22;703;51.162;13.574;2023-05-10T04:37:45;11.30;99.90
1417;DHT22;703;51.162;13.574;2023-05-10T04:40:11;11.40;99.90
1417;DHT22;703;51.162;13.574;2023-05-10T04:42:36;11.40;99.90
1417;DHT22;703;51.162;13.574;2023-05-10T04:45:02;11.50;99.90
1417;DHT22;703;51.162;13.574;2023-05-10T04:47:27;11.50;99.90
1417;DHT22;703;51.162;13.574;2023-05-10T04:49:53;11.50;99.90
1417;DHT22;703;51.162;13.574;2023-05-10T04:52:18;11.60;99.90
1417;DHT22;703;51.162;13.574;2023-05-10T04:54:44;11.70;99.90
1417;DHT22;703;51.162;13.574;2023-05-10T04:57:10;11.80;99.90
1417;DHT22;703;51.162;13.574;2023-05-10T04:59:36;11.90;99.90
1417;DHT22;703;51.162;13.574;2023-05-10T05:02:02;12.00;99.90
1417;DHT22;703;51.162;13.574;2023-05-10T05:04:29;12.10;99.90
1417;DHT22;703;51.162;13.574;2023-05-10T05:06:54;12.20;99.90
1417;DHT22;703;51.162;13.574;2023-05-10T05:09:20;12.30;99.90
1417;DHT22;703;51.162;13.574;2023-05-10T05:11:46;12.40;99.90
1417;DHT22;703;51.162;13.574;2023-05-10T05:14:11;12.40;99.90
1417;DHT22;703;51.162;13.574;2023-05-10T05:16:37;12.60;99.90
1417;DHT22;703;51.162;13.574;2023-05-10T05:19:02;12.70;99.90
1417;DHT22;703;51.162;13.574;2023-05-10T05:21:28;12.60;99.90
1417;DHT22;703;51.162;13.574;2023-05-10T05:23:54;12.70;99.90
1417;DHT22;703;51.162;13.574;2023-05-10T05:26:19;12.80;99.90
1417;DHT22;703;51.162;13.574;2023-05-10T05:28:45;12.90;99.90
1417;DHT22;703;51.162;13.574;2023-05-10T05:31:11;12.80;99.90
1417;DHT22;703;51.162;13.574;2023-05-10T05:33:36;12.90;99.90
1417;DHT22;703;51.162;13.574;2023-05-10T05:36:02;13.10;99.90
1417;DHT22;703;51.162;13.574;2023-05-10T05:38:28;13.10;99.90
1417;DHT22;703;51.162;13.574;2023-05-10T05:40:54;13.20;99.90
1417;DHT22;703;51.162;13.574;2023-05-10T05:43:19;13.30;99.90
1417;DHT22;703;51.162;13.574;2023-05-10T05:45:45;13.40;99.90
1417;DHT22;703;51.162;13.574;2023-05-10T05:48:10;13.50;99.90
1417;DHT22;703;51.162;13.574;2023-05-10T05:50:36;13.70;99.90
1417;DHT22;703;51.162;13.574;2023-05-10T05:53:02;13.80;99.90
1417;DHT22;703;51.162;13.574;2023-05-10T05:55:27;14.00;99.90
1417;DHT22;703;51.162;13.574;2023-05-10T05:57:53;14.00;99.90
1417;DHT22;703;51.162;13.574;2023-05-10T06:00:19;14.00;99.90
1417;DHT22;703;51.162;13.574;2023-05-10T06:02:44;14.30;99.90
1417;DHT22;703;51.162;13.574;2023-05-10T06:05:10;14.30;99.90
1417;DHT22;703;51.162;13.574;2023-05-10T06:07:35;14.30;99.90
1417;DHT22;703;51.162;13.574;2023-05-10T06:10:01;14.40;99.90
1417;DHT22;703;51.162;13.574;2023-05-10T06:12:28;14.70;99.90
1417;DHT22;703;51.162;13.574;2023-05-10T06:14:53;14.60;99.90
1417;DHT22;703;51.162;13.574;2023-05-10T06:17:19;14.50;99.90
1417;DHT22;703;51.162;13.574;2023-05-10T06:19:44;14.70;99.90
1417;DHT22;703;51.162;13.574;2023-05-10T06:22:10;14.90;99.90
1417;DHT22;703;51.162;13.574;2023-05-10T06:24:35;14.90;99.90
1417;DHT22;703;51.162;13.574;2023-05-10T06:27:04;15.10;99.90
1417;DHT22;703;51.162;13.574;2023-05-10T06:29:29;15.10;99.90
1417;DHT22;703;51.162;13.574;2023-05-10T06:31:55;15.10;99.90
1417;DHT22;703;51.162;13.574;2023-05-10T06:34:20;15.20;99.90
1417;DHT22;703;51.162;13.574;2023-05-10T06:36:46;15.30;99.90
1417;DHT22;703;51.162;13.574;2023-05-10T06:39:11;15.30;99.90
1417;DHT22;703;51.162;13.574;2023-05-10T06:41:37;15.60;99.90
1417;DHT22;703;51.162;13.574;2023-05-10T06:44:03;15.60;99.90
1417;DHT22;703;51.162;13.574;2023-05-10T06:46:29;15.60;99.90
1417;DHT22;703;51.162;13.574;2023-05-10T06:48:54;15.60;99.90
1417;DHT22;703;51.162;13.574;2023-05-10T06:51:20;15.80;99.90
1417;DHT22;703;51.162;13.574;2023-05-10T06:53:46;16.10;99.90
1417;DHT22;703;51.162;13.574;2023-05-10T06:56:12;16.60;99.90
1417;DHT22;703;51.162;13.574;2023-05-10T06:58:38;16.40;99.90
1417;DHT22;703;51.162;13.574;2023-05-10T07:01:03;16.40;99.90
1417;DHT22;703;51.162;13.574;2023-05-10T07:03:30;16.80;99.90
1417;DHT22;703;51.162;13.574;2023-05-10T07:06:02;16.90;99.90
1417;DHT22;703;51.162;13.574;2023-05-10T07:08:32;17.10;99.90
1417;DHT22;703;51.162;13.574;2023-05-10T07:11:04;16.80;99.90
1417;DHT22;703;51.162;13.574;2023-05-10T07:13:30;16.80;99.90
1417;DHT22;703;51.162;13.574;2023-05-10T07:15:56;17.00;99.90
1417;DHT22;703;51.162;13.574;2023-05-10T07:18:22;17.30;99.90
1417;DHT22;703;51.162;13.574;2023-05-10T07:20:48;17.30;99.90
1417;DHT22;703;51.162;13.574;2023-05-10T07:23:13;17.40;99.90
1417;DHT22;703;51.162;13.574;2023-05-10T07:25:39;17.50;99.90
1417;DHT22;703;51.162;13.574;2023-05-10T07:28:04;17.30;99.90
1417;DHT22;703;51.162;13.574;2023-05-10T07:30:30;17.60;99.90
1417;DHT22;703;51.162;13.574;2023-05-10T07:33:02;17.60;99.90
1417;DHT22;703;51.162;13.574;2023-05-10T07:35:27;17.90;99.90
1417;DHT22;703;51.162;13.574;2023-05-10T07:37:53;17.80;99.90
1417;DHT22;703;51.162;13.574;2023-05-10T07:40:18;18.00;99.90
1417;DHT22;703;51.162;13.574;2023-05-10T07:42:44;18.40;99.90
1417;DHT22;703;51.162;13.574;2023-05-10T07:45:09;18.40;99.90
1417;DHT22;703;51.162;13.574;2023-05-10T07:47:35;18.20;99.90
1417;DHT22;703;51.162;13.574;2023-05-10T07:50:01;17.90;99.90
1417;DHT22;703;51.162;13.574;2023-05-10T07:52:26;17.90;99.90
1417;DHT22;703;51.162;13.574;2023-05-10T07:54:52;17.70;99.90
1417;DHT22;703;51.162;13.574;2023-05-10T07:57:18;17.90;99.90
1417;DHT22;703;51.162;13.574;2023-05-10T07:59:44;18.10;99.90
1417;DHT22;703;51.162;13.574;2023-05-10T08:02:10;18.50;99.90
1417;DHT22;703;51.162;13.574;2023-05-10T08:04:36;18.90;99.90
1417;DHT22;703;51.162;13.574;2023-05-10T08:07:01;19.10;99.90
1417;DHT22;703;51.162;13.574;2023-05-10T08:09:27;19.00;99.90
1417;DHT22;703;51.162;13.574;2023-05-10T08:11:52;19.10;99.90
1417;DHT22;703;51.162;13.574;2023-05-10T08:14:18;19.40;99.90
1417;DHT22;703;51.162;13.574;2023-05-10T08:16:43;19.60;99.90
1417;DHT22;703;51.162;13.574;2023-05-10T08:19:09;19.60;99.90
1417;DHT22;703;51.162;13.574;2023-05-10T08:21:34;19.30;99.90
1417;DHT22;703;51.162;13.574;2023-05-10T08:24:00;19.40;99.90
1417;DHT22;703;51.162;13.574;2023-05-10T08:26:26;19.70;99.90
1417;DHT22;703;51.162;13.574;2023-05-10T08:28:52;19.60;99.90
1417;DHT22;703;51.162;13.574;2023-05-10T08:31:18;19.90;99.90
1417;DHT22;703;51.162;13.574;2023-05-10T08:33:43;20.40;99.90
1417;DHT22;703;51.162;13.574;2023-05-10T08:36:09;20.00;99.90
1417;DHT22;703;51.162;13.574;2023-05-10T08:38:34;19.70;99.90
1417;DHT22;703;51.162;13.574;2023-05-10T08:41:00;20.10;99.90
1417;DHT22;703;51.162;13.574;2023-05-10T08:43:27;20.00;99.90
1417;DHT22;703;51.162;13.574;2023-05-10T08:45:54;20.40;99.90
1417;DHT22;703;51.162;13.574;2023-05-10T08:48:20;20.30;99.90
1417;DHT22;703;51.162;13.574;2023-05-10T08:50:47;20.70;99.90
1417;DHT22;703;51.162;13.574;2023-05-10T08:53:13;20.60;99.90
1417;DHT22;703;51.162;13.574;2023-05-10T08:55:40;20.20;99.90
1417;DHT22;703;51.162;13.574;2023-05-10T08:58:07;19.90;99.90
1417;DHT22;703;51.162;13.574;2023-05-10T09:00:33;20.40;99.90
1417;DHT22;703;51.162;13.574;2023-05-10T09:02:59;20.70;99.90
1417;DHT22;703;51.162;13.574;2023-05-10T09:05:25;21.00;99.90
1417;DHT22;703;51.162;13.574;2023-05-10T09:07:51;21.00;99.90
1417;DHT22;703;51.162;13.574;2023-05-10T09:10:18;20.70;99.90
1417;DHT22;703;51.162;13.574;2023-05-10T09:12:44;20.60;99.90
1417;DHT22;703;51.162;13.574;2023-05-10T09:15:10;21.00;99.90
1417;DHT22;703;51.162;13.574;2023-05-10T09:17:36;21.40;99.90
1417;DHT22;703;51.162;13.574;2023-05-10T09:20:03;21.60;99.90
1417;DHT22;703;51.162;13.574;2023-05-10T09:22:31;21.30;99.90
1417;DHT22;703;51.162;13.574;2023-05-10T09:25:30;21.50;99.90
1417;DHT22;703;51.162;13.574;2023-05-10T09:27:48;21.20;99.90
1417;DHT22;703;51.162;13.574;2023-05-10T09:30:23;21.70;99.90
1417;DHT22;703;51.162;13.574;2023-05-10T09:32:48;21.70;99.90
1417;DHT22;703;51.162;13.574;2023-05-10T09:35:15;21.90;99.90
1417;DHT22;703;51.162;13.574;2023-05-10T09:37:42;22.30;99.90
1417;DHT22;703;51.162;13.574;2023-05-10T09:40:10;22.70;99.90
1417;DHT22;703;51.162;13.574;2023-05-10T09:42:36;22.50;99.90
1417;DHT22;703;51.162;13.574;2023-05-10T09:45:05;22.80;99.90
1417;DHT22;703;51.162;13.574;2023-05-10T09:47:32;22.30;99.90
1417;DHT22;703;51.162;13.574;2023-05-10T09:49:58;21.60;99.90
1417;DHT22;703;51.162;13.574;2023-05-10T09:52:45;21.80;99.90
1417;DHT22;703;51.162;13.574;2023-05-10T09:55:11;22.30;99.90
1417;DHT22;703;51.162;13.574;2023-05-10T09:57:37;22.10;99.90
1417;DHT22;703;51.162;13.574;2023-05-10T10:00:03;22.50;99.90
1417;DHT22;703;51.162;13.574;2023-05-10T10:02:31;22.10;99.90
1417;DHT22;703;51.162;13.574;2023-05-10T10:04:56;22.20;99.90
1417;DHT22;703;51.162;13.574;2023-05-10T10:07:23;22.90;99.90
1417;DHT22;703;51.162;13.574;2023-05-10T10:09:49;22.30;99.90
1417;DHT22;703;51.162;13.574;2023-05-10T10:12:15;22.70;99.90
1417;DHT22;703;51.162;13.574;2023-05-10T10:14:40;22.80;99.90
1417;DHT22;703;51.162;13.574;2023-05-10T10:17:06;22.50;99.90
1417;DHT22;703;51.162;13.574;2023-05-10T10:19:33;22.70;99.90
1417;DHT22;703;51.162;13.574;2023-05-10T10:21:58;22.50;99.90
1417;DHT22;703;51.162;13.574;2023-05-10T10:24:25;22.60;99.90
1417;DHT22;703;51.162;13.574;2023-05-10T10:26:54;22.40;99.90
1417;DHT22;703;51.162;13.574;2023-05-10T10:31:51;22.90;99.90
1417;DHT22;703;51.162;13.574;2023-05-10T10:34:27;23.00;99.90
1417;DHT22;703;51.162;13.574;2023-05-10T10:36:54;22.80;99.90
1417;DHT22;703;51.162;13.574;2023-05-10T10:39:19;22.70;99.90
1417;DHT22;703;51.162;13.574;2023-05-10T10:41:49;23.00;99.90
1417;DHT22;703;51.162;13.574;2023-05-10T10:44:22;23.70;99.90
1417;DHT22;703;51.162;13.574;2023-05-10T10:47:07;23.50;99.90
1417;DHT22;703;51.162;13.574;2023-05-10T10:50:02;23.20;99.90
1417;DHT22;703;51.162;13.574;2023-05-10T10:52:28;22.50;99.90
1417;DHT22;703;51.162;13.574;2023-05-10T10:57:24;23.10;99.90
1417;DHT22;703;51.162;13.574;2023-05-10T10:59:53;23.30;99.90
1417;DHT22;703;51.162;13.574;2023-05-10T11:07:51;23.30;99.90
1417;DHT22;703;51.162;13.574;2023-05-10T11:10:21;23.30;99.90
1417;DHT22;703;51.162;13.574;2023-05-10T11:13:00;23.10;99.90
1417;DHT22;703;51.162;13.574;2023-05-10T11:15:29;23.30;99.90
1417;DHT22;703;51.162;13.574;2023-05-10T11:17:55;23.10;99.90
1417;DHT22;703;51.162;13.574;2023-05-10T11:20:21;23.40;99.90
1417;DHT22;703;51.162;13.574;2023-05-10T11:22:52;23.60;99.90
1417;DHT22;703;51.162;13.574;2023-05-10T11:25:19;23.40;99.90
1417;DHT22;703;51.162;13.574;2023-05-10T11:27:45;23.70;99.90
1417;DHT22;703;51.162;13.574;2023-05-10T11:30:12;23.40;99.90
1417;DHT22;703;51.162;13.574;2023-05-10T11:32:38;23.10;99.90
1417;DHT22;703;51.162;13.574;2023-05-10T11:35:07;23.90;99.90
1417;DHT22;703;51.162;13.574;2023-05-10T11:37:33;24.10;99.90
1417;DHT22;703;51.162;13.574;2023-05-10T11:39:59;23.90;99.90
1417;DHT22;703;51.162;13.574;2023-05-10T11:42:25;23.80;99.90
1417;DHT22;703;51.162;13.574;2023-05-10T11:44:50;24.50;99.90
1417;DHT22;703;51.162;13.574;2023-05-10T11:47:16;24.50;99.90
1417;DHT22;703;51.162;13.574;2023-05-10T11:49:45;23.10;99.90
1417;DHT22;703;51.162;13.574;2023-05-10T11:52:10;23.50;99.90
1417;DHT22;703;51.162;13.574;2023-05-10T11:55:00;23.80;99.90
1417;DHT22;703;51.162;13.574;2023-05-10T11:57:26;24.10;99.90
1417;DHT22;703;51.162;13.574;2023-05-10T11:59:55;24.10;99.90
1417;DHT22;703;51.162;13.574;2023-05-10T12:02:21;24.60;99.90
1417;DHT22;703;51.162;13.574;2023-05-10T12:04:47;24.30;99.90
1417;DHT22;703;51.162;13.574;2023-05-10T12:07:12;24.20;99.90
1417;DHT22;703;51.162;13.574;2023-05-10T12:09:44;23.70;99.90
1417;DHT22;703;51.162;13.574;2023-05-10T12:12:27;23.80;99.90
1417;DHT22;703;51.162;13.574;2023-05-10T12:14:52;23.30;99.90
1417;DHT22;703;51.162;13.574;2023-05-10T12:17:17;22.80;99.90
1417;DHT22;703;51.162;13.574;2023-05-10T12:19:43;22.20;99.90
1417;DHT22;703;51.162;13.574;2023-05-10T12:22:09;22.60;99.90
1417;DHT22;703;51.162;13.574;2023-05-10T12:24:37;23.70;99.90
1417;DHT22;703;51.162;13.574;2023-05-10T12:27:07;23.50;99.90
1417;DHT22;703;51.162;13.574;2023-05-10T12:29:33;23.40;99.90
1417;DHT22;703;51.162;13.574;2023-05-10T12:31:59;23.40;99.90
1417;DHT22;703;51.162;13.574;2023-05-10T12:34:25;23.10;99.90
1417;DHT22;703;51.162;13.574;2023-05-10T12:36:54;22.20;99.90
1417;DHT22;703;51.162;13.574;2023-05-10T12:39:20;22.20;99.90
1417;DHT22;703;51.162;13.574;2023-05-10T12:41:45;22.20;99.90
1417;DHT22;703;51.162;13.574;2023-05-10T12:44:11;21.90;99.90
1417;DHT22;703;51.162;13.574;2023-05-10T12:46:36;21.80;99.90
1417;DHT22;703;51.162;13.574;2023-05-10T12:49:02;21.00;99.90
1417;DHT22;703;51.162;13.574;2023-05-10T12:51:27;21.20;99.90
1417;DHT22;703;51.162;13.574;2023-05-10T12:53:53;20.90;99.90
1417;DHT22;703;51.162;13.574;2023-05-10T12:56:19;20.70;99.90
1417;DHT22;703;51.162;13.574;2023-05-10T12:58:45;20.30;99.90
1417;DHT22;703;51.162;13.574;2023-05-10T13:01:14;20.30;99.90
1417;DHT22;703;51.162;13.574;2023-05-10T13:03:39;20.50;99.90
1417;DHT22;703;51.162;13.574;2023-05-10T13:06:05;20.00;99.90
1417;DHT22;703;51.162;13.574;2023-05-10T13:08:31;20.30;99.90
1417;DHT22;703;51.162;13.574;2023-05-10T13:11:01;20.50;99.90
1417;DHT22;703;51.162;13.574;2023-05-10T13:13:27;20.60;99.90
1417;DHT22;703;51.162;13.574;2023-05-10T13:15:53;20.50;99.90
1417;DHT22;703;51.162;13.574;2023-05-10T13:18:19;20.50;99.90
1417;DHT22;703;51.162;13.574;2023-05-10T13:20:44;20.30;99.90
1417;DHT22;703;51.162;13.574;2023-05-10T13:23:10;20.30;99.90
1417;DHT22;703;51.162;13.574;2023-05-10T13:25:35;20.50;99.90
1417;DHT22;703;51.162;13.574;2023-05-10T13:28:01;20.40;99.90
1417;DHT22;703;51.162;13.574;2023-05-10T13:30:27;20.40;99.90
1417;DHT22;703;51.162;13.574;2023-05-10T13:32:54;20.40;99.90
1417;DHT22;703;51.162;13.574;2023-05-10T13:35:19;20.50;99.90
1417;DHT22;703;51.162;13.574;2023-05-10T13:37:45;20.60;99.90
1417;DHT22;703;51.162;13.574;2023-05-10T13:40:10;21.00;99.90
1417;DHT22;703;51.162;13.574;2023-05-10T13:42:36;21.20;99.90
1417;DHT22;703;51.162;13.574;2023-05-10T13:45:02;20.70;99.90
1417;DHT22;703;51.162;13.574;2023-05-10T13:47:28;20.80;99.90
1417;DHT22;703;51.162;13.574;2023-05-10T13:49:54;21.20;99.90
1417;DHT22;703;51.162;13.574;2023-05-10T13:52:19;20.90;99.90
1417;DHT22;703;51.162;13.574;2023-05-10T13:54:45;21.00;99.90
1417;DHT22;703;51.162;13.574;2023-05-10T13:57:11;21.30;99.90
1417;DHT22;703;51.162;13.574;2023-05-10T13:59:39;21.20;99.90
1417;DHT22;703;51.162;13.574;2023-05-10T14:02:04;20.90;99.90
1417;DHT22;703;51.162;13.574;2023-05-10T14:04:30;20.80;99.90
1417;DHT22;703;51.162;13.574;2023-05-10T14:06:56;20.90;99.90
1417;DHT22;703;51.162;13.574;2023-05-10T14:09:22;21.10;99.90
1417;DHT22;703;51.162;13.574;2023-05-10T14:11:48;20.80;99.90
1417;DHT22;703;51.162;13.574;2023-05-10T14:14:13;20.80;99.90
1417;DHT22;703;51.162;13.574;2023-05-10T14:16:45;21.10;99.90
1417;DHT22;703;51.162;13.574;2023-05-10T14:19:10;20.40;99.90
1417;DHT22;703;51.162;13.574;2023-05-10T14:21:36;20.60;99.90
1417;DHT22;703;51.162;13.574;2023-05-10T14:24:02;21.10;99.90
1417;DHT22;703;51.162;13.574;2023-05-10T14:26:27;21.00;99.90
1417;DHT22;703;51.162;13.574;2023-05-10T14:28:53;20.80;99.90
1417;DHT22;703;51.162;13.574;2023-05-10T14:31:18;20.70;99.90
1417;DHT22;703;51.162;13.574;2023-05-10T14:33:48;20.30;99.90
1417;DHT22;703;51.162;13.574;2023-05-10T14:36:14;20.10;99.90
1417;DHT22;703;51.162;13.574;2023-05-10T14:38:39;19.70;99.90
1417;DHT22;703;51.162;13.574;2023-05-10T14:41:05;19.80;99.90
1417;DHT22;703;51.162;13.574;2023-05-10T14:43:31;19.80;99.90
1417;DHT22;703;51.162;13.574;2023-05-10T14:45:56;19.50;99.90
1417;DHT22;703;51.162;13.574;2023-05-10T14:48:22;19.50;99.90
1417;DHT22;703;51.162;13.574;2023-05-10T14:50:47;19.40;99.90
1417;DHT22;703;51.162;13.574;2023-05-10T14:53:15;19.50;99.90
1417;DHT22;703;51.162;13.574;2023-05-10T14:55:40;19.60;99.90
1417;DHT22;703;51.162;13.574;2023-05-10T14:58:06;19.70;99.90
1417;DHT22;703;51.162;13.574;2023-05-10T15:00:31;19.90;99.90
1417;DHT22;703;51.162;13.574;2023-05-10T15:02:57;20.00;99.90
1417;DHT22;703;51.162;13.574;2023-05-10T15:05:22;19.70;99.90
1417;DHT22;703;51.162;13.574;2023-05-10T15:07:48;19.80;99.90
1417;DHT22;703;51.162;13.574;2023-05-10T15:10:14;19.80;99.90
1417;DHT22;703;51.162;13.574;2023-05-10T15:12:39;19.80;99.90
1417;DHT22;703;51.162;13.574;2023-05-10T15:15:05;20.00;99.90
1417;DHT22;703;51.162;13.574;2023-05-10T15:17:31;20.30;99.90
1417;DHT22;703;51.162;13.574;2023-05-10T15:19:56;19.70;99.90
1417;DHT22;703;51.162;13.574;2023-05-10T15:22:22;19.70;99.90
1417;DHT22;703;51.162;13.574;2023-05-10T15:24:48;19.60;99.90
1417;DHT22;703;51.162;13.574;2023-05-10T15:27:13;19.60;99.90
1417;DHT22;703;51.162;13.574;2023-05-10T15:29:39;19.40;99.90
1417;DHT22;703;51.162;13.574;2023-05-10T15:32:04;19.40;99.90
1417;DHT22;703;51.162;13.574;2023-05-10T15:34:30;19.50;99.90
1417;DHT22;703;51.162;13.574;2023-05-10T15:36:56;19.50;99.90
1417;DHT22;703;51.162;13.574;2023-05-10T15:39:22;19.50;99.90
1417;DHT22;703;51.162;13.574;2023-05-10T15:41:47;19.40;99.90
1417;DHT22;703;51.162;13.574;2023-05-10T15:44:14;19.50;99.90
1417;DHT22;703;51.162;13.574;2023-05-10T15:46:39;19.30;99.90
1417;DHT22;703;51.162;13.574;2023-05-10T15:49:05;19.10;99.90
1417;DHT22;703;51.162;13.574;2023-05-10T15:51:31;19.30;99.90
1417;DHT22;703;51.162;13.574;2023-05-10T15:54:00;17.90;99.90
1417;DHT22;703;51.162;13.574;2023-05-10T15:56:27;19.30;99.90
1417;DHT22;703;51.162;13.574;2023-05-10T15:58:53;19.20;99.90
1417;DHT22;703;51.162;13.574;2023-05-10T16:01:19;19.10;99.90
1417;DHT22;703;51.162;13.574;2023-05-10T16:03:45;19.10;99.90
1417;DHT22;703;51.162;13.574;2023-05-10T16:06:10;19.00;99.90
1417;DHT22;703;51.162;13.574;2023-05-10T16:08:36;18.80;99.90
1417;DHT22;703;51.162;13.574;2023-05-10T16:11:01;18.60;99.90
1417;DHT22;703;51.162;13.574;2023-05-10T16:13:27;18.70;99.90
1417;DHT22;703;51.162;13.574;2023-05-10T16:15:53;18.60;99.90
1417;DHT22;703;51.162;13.574;2023-05-10T16:18:18;18.50;99.90
1417;DHT22;703;51.162;13.574;2023-05-10T16:20:44;18.30;99.90
1417;DHT22;703;51.162;13.574;2023-05-10T16:23:10;18.20;99.90
1417;DHT22;703;51.162;13.574;2023-05-10T16:25:35;18.40;99.90
1417;DHT22;703;51.162;13.574;2023-05-10T16:28:01;18.30;99.90
1417;DHT22;703;51.162;13.574;2023-05-10T16:30:26;18.30;99.90
1417;DHT22;703;51.162;13.574;2023-05-10T16:32:56;18.20;99.90